sensor_id;sensor_type;location;lat;lon;timestamp;P1;durP1;ratioP1;P2;durP2;ratioP2
35959;SDS011;22043;50.970;7.192;2023-04-03T00:01:29;4.82;;;1.67;;
35959;SDS011;22043;50.970;7.192;2023-04-03T00:03:54;4.07;;;1.70;;
35959;SDS011;22043;50.970;7.192;2023-04-03T00:06:20;2.83;;;1.50;;
35959;SDS011;22043;50.970;7.192;2023-04-03T00:08:47;3.15;;;1.30;;
35959;SDS011;22043;50.970;7.192;2023-04-03T00:11:12;6.47;;;3.03;;
35959;SDS011;22043;50.970;7.192;2023-04-03T00:13:38;3.40;;;1.40;;
35959;SDS011;22043;50.970;7.192;2023-04-03T00:16:04;3.20;;;1.70;;
35959;SDS011;22043;50.970;7.192;2023-04-03T00:18:31;5.25;;;1.65;;
35959;SDS011;22043;50.970;7.192;2023-04-03T00:20:56;4.30;;;1.48;;
35959;SDS011;22043;50.970;7.192;2023-04-03T00:23:22;4.93;;;1.80;;
35959;SDS011;22043;50.970;7.192;2023-04-03T00:25:48;7.38;;;1.80;;
35959;SDS011;22043;50.970;7.192;2023-04-03T00:28:15;4.75;;;1.67;;
35959;SDS011;22043;50.970;7.192;2023-04-03T00:30:40;3.55;;;1.67;;
35959;SDS011;22043;50.970;7.192;2023-04-03T00:33:06;3.70;;;1.60;;
35959;SDS011;22043;50.970;7.192;2023-04-03T00:35:31;3.17;;;1.50;;
35959;SDS011;22043;50.970;7.192;2023-04-03T00:37:58;4.18;;;1.88;;
35959;SDS011;22043;50.970;7.192;2023-04-03T00:40:24;3.88;;;1.40;;
35959;SDS011;22043;50.970;7.192;2023-04-03T00:42:54;4.30;;;1.75;;
35959;SDS011;22043;50.970;7.192;2023-04-03T00:45:30;3.95;;;1.45;;
35959;SDS011;22043;50.970;7.192;2023-04-03T00:47:57;4.57;;;1.30;;
35959;SDS011;22043;50.970;7.192;2023-04-03T00:50:26;4.35;;;1.35;;
35959;SDS011;22043;50.970;7.192;2023-04-03T00:52:53;5.05;;;1.40;;
35959;SDS011;22043;50.970;7.192;2023-04-03T00:55:19;6.97;;;2.30;;
35959;SDS011;22043;50.970;7.192;2023-04-03T00:57:45;4.30;;;1.92;;
35959;SDS011;22043;50.970;7.192;2023-04-03T01:00:16;2.15;;;1.38;;
35959;SDS011;22043;50.970;7.192;2023-04-03T01:02:44;5.60;;;1.90;;
35959;SDS011;22043;50.970;7.192;2023-04-03T01:05:13;5.50;;;1.50;;
35959;SDS011;22043;50.970;7.192;2023-04-03T01:07:42;3.67;;;1.95;;
35959;SDS011;22043;50.970;7.192;2023-04-03T01:10:10;3.45;;;1.58;;
35959;SDS011;22043;50.970;7.192;2023-04-03T01:12:39;2.38;;;1.60;;
35959;SDS011;22043;50.970;7.192;2023-04-03T01:15:08;3.38;;;1.48;;
35959;SDS011;22043;50.970;7.192;2023-04-03T01:20:23;2.83;;;1.55;;
35959;SDS011;22043;50.970;7.192;2023-04-03T01:25:47;4.07;;;2.15;;
35959;SDS011;22043;50.970;7.192;2023-04-03T01:28:28;3.53;;;1.73;;
35959;SDS011;22043;50.970;7.192;2023-04-03T01:33:41;2.65;;;1.65;;
35959;SDS011;22043;50.970;7.192;2023-04-03T01:36:07;3.47;;;1.38;;
35959;SDS011;22043;50.970;7.192;2023-04-03T01:38:33;2.40;;;1.50;;
35959;SDS011;22043;50.970;7.192;2023-04-03T01:40:59;3.60;;;1.70;;
35959;SDS011;22043;50.970;7.192;2023-04-03T01:43:25;3.72;;;1.80;;
35959;SDS011;22043;50.970;7.192;2023-04-03T01:45:50;4.10;;;1.88;;
35959;SDS011;22043;50.970;7.192;2023-04-03T01:48:17;3.53;;;1.70;;
35959;SDS011;22043;50.970;7.192;2023-04-03T01:50:43;5.32;;;1.63;;
35959;SDS011;22043;50.970;7.192;2023-04-03T01:53:08;7.53;;;2.25;;
35959;SDS011;22043;50.970;7.192;2023-04-03T01:55:34;5.60;;;2.17;;
35959;SDS011;22043;50.970;7.192;2023-04-03T01:57:59;2.63;;;1.60;;
35959;SDS011;22043;50.970;7.192;2023-04-03T02:00:25;4.35;;;1.80;;
35959;SDS011;22043;50.970;7.192;2023-04-03T02:02:51;4.32;;;1.77;;
35959;SDS011;22043;50.970;7.192;2023-04-03T02:05:17;3.75;;;1.85;;
35959;SDS011;22043;50.970;7.192;2023-04-03T02:07:43;2.90;;;1.50;;
35959;SDS011;22043;50.970;7.192;2023-04-03T02:10:08;4.47;;;1.75;;
35959;SDS011;22043;50.970;7.192;2023-04-03T02:12:34;6.03;;;2.22;;
35959;SDS011;22043;50.970;7.192;2023-04-03T02:15:00;5.22;;;2.10;;
35959;SDS011;22043;50.970;7.192;2023-04-03T02:17:26;3.95;;;1.70;;
35959;SDS011;22043;50.970;7.192;2023-04-03T02:19:53;5.65;;;2.20;;
35959;SDS011;22043;50.970;7.192;2023-04-03T02:22:19;3.67;;;1.58;;
35959;SDS011;22043;50.970;7.192;2023-04-03T02:24:45;3.90;;;2.30;;
35959;SDS011;22043;50.970;7.192;2023-04-03T02:27:10;9.30;;;3.25;;
35959;SDS011;22043;50.970;7.192;2023-04-03T02:29:36;3.70;;;2.00;;
35959;SDS011;22043;50.970;7.192;2023-04-03T02:32:01;4.15;;;2.22;;
35959;SDS011;22043;50.970;7.192;2023-04-03T02:34:28;5.40;;;1.80;;
35959;SDS011;22043;50.970;7.192;2023-04-03T02:36:57;4.68;;;2.15;;
35959;SDS011;22043;50.970;7.192;2023-04-03T02:39:23;4.50;;;2.05;;
35959;SDS011;22043;50.970;7.192;2023-04-03T02:41:48;4.50;;;1.98;;
35959;SDS011;22043;50.970;7.192;2023-04-03T02:44:20;3.03;;;1.63;;
35959;SDS011;22043;50.970;7.192;2023-04-03T02:46:45;6.28;;;2.05;;
35959;SDS011;22043;50.970;7.192;2023-04-03T02:49:11;4.15;;;2.17;;
35959;SDS011;22043;50.970;7.192;2023-04-03T02:51:36;8.45;;;2.30;;
35959;SDS011;22043;50.970;7.192;2023-04-03T02:54:01;5.25;;;2.10;;
35959;SDS011;22043;50.970;7.192;2023-04-03T02:56:30;3.67;;;1.77;;
35959;SDS011;22043;50.970;7.192;2023-04-03T02:58:56;5.00;;;1.92;;
35959;SDS011;22043;50.970;7.192;2023-04-03T03:01:22;4.25;;;2.05;;
35959;SDS011;22043;50.970;7.192;2023-04-03T03:03:47;5.05;;;1.90;;
35959;SDS011;22043;50.970;7.192;2023-04-03T03:06:13;6.72;;;2.20;;
35959;SDS011;22043;50.970;7.192;2023-04-03T03:11:06;4.15;;;1.67;;
35959;SDS011;22043;50.970;7.192;2023-04-03T03:13:32;3.70;;;2.10;;
35959;SDS011;22043;50.970;7.192;2023-04-03T03:15:58;6.85;;;2.33;;
35959;SDS011;22043;50.970;7.192;2023-04-03T03:18:24;5.28;;;1.77;;
35959;SDS011;22043;50.970;7.192;2023-04-03T03:20:53;5.75;;;1.90;;
35959;SDS011;22043;50.970;7.192;2023-04-03T03:23:20;3.63;;;1.80;;
35959;SDS011;22043;50.970;7.192;2023-04-03T03:25:46;3.28;;;1.80;;
35959;SDS011;22043;50.970;7.192;2023-04-03T03:28:12;2.63;;;1.67;;
35959;SDS011;22043;50.970;7.192;2023-04-03T03:30:38;4.78;;;1.90;;
35959;SDS011;22043;50.970;7.192;2023-04-03T03:33:03;4.88;;;1.90;;
35959;SDS011;22043;50.970;7.192;2023-04-03T03:35:29;3.80;;;1.67;;
35959;SDS011;22043;50.970;7.192;2023-04-03T03:37:54;3.90;;;1.80;;
35959;SDS011;22043;50.970;7.192;2023-04-03T03:40:20;4.18;;;1.73;;
35959;SDS011;22043;50.970;7.192;2023-04-03T03:42:46;4.63;;;2.10;;
35959;SDS011;22043;50.970;7.192;2023-04-03T03:45:11;3.65;;;1.70;;
35959;SDS011;22043;50.970;7.192;2023-04-03T03:47:37;4.03;;;1.60;;
35959;SDS011;22043;50.970;7.192;2023-04-03T03:50:02;5.40;;;1.98;;
35959;SDS011;22043;50.970;7.192;2023-04-03T03:52:28;5.22;;;2.33;;
35959;SDS011;22043;50.970;7.192;2023-04-03T03:54:55;3.88;;;1.67;;
35959;SDS011;22043;50.970;7.192;2023-04-03T03:57:21;5.97;;;1.70;;
35959;SDS011;22043;50.970;7.192;2023-04-03T03:59:46;3.88;;;1.65;;
35959;SDS011;22043;50.970;7.192;2023-04-03T04:02:15;3.03;;;1.50;;
35959;SDS011;22043;50.970;7.192;2023-04-03T04:04:41;3.92;;;1.60;;
35959;SDS011;22043;50.970;7.192;2023-04-03T04:07:06;5.82;;;2.00;;
35959;SDS011;22043;50.970;7.192;2023-04-03T04:09:33;4.75;;;1.95;;
35959;SDS011;22043;50.970;7.192;2023-04-03T04:11:58;3.80;;;1.88;;
35959;SDS011;22043;50.970;7.192;2023-04-03T04:14:24;9.48;;;1.92;;
35959;SDS011;22043;50.970;7.192;2023-04-03T04:16:50;2.67;;;1.52;;
35959;SDS011;22043;50.970;7.192;2023-04-03T04:19:21;3.38;;;1.95;;
35959;SDS011;22043;50.970;7.192;2023-04-03T04:21:47;3.45;;;1.30;;
35959;SDS011;22043;50.970;7.192;2023-04-03T04:24:12;3.13;;;1.58;;
35959;SDS011;22043;50.970;7.192;2023-04-03T04:26:38;3.03;;;1.70;;
35959;SDS011;22043;50.970;7.192;2023-04-03T04:29:05;4.03;;;1.50;;
35959;SDS011;22043;50.970;7.192;2023-04-03T04:31:33;8.30;;;2.92;;
35959;SDS011;22043;50.970;7.192;2023-04-03T04:33:59;3.47;;;1.50;;
35959;SDS011;22043;50.970;7.192;2023-04-03T04:36:25;2.28;;;1.30;;
35959;SDS011;22043;50.970;7.192;2023-04-03T04:38:51;3.72;;;1.50;;
35959;SDS011;22043;50.970;7.192;2023-04-03T04:41:20;6.50;;;1.90;;
35959;SDS011;22043;50.970;7.192;2023-04-03T04:43:50;4.57;;;1.60;;
35959;SDS011;22043;50.970;7.192;2023-04-03T04:46:17;5.15;;;1.60;;
35959;SDS011;22043;50.970;7.192;2023-04-03T04:48:47;3.28;;;1.33;;
35959;SDS011;22043;50.970;7.192;2023-04-03T04:51:14;5.57;;;1.52;;
35959;SDS011;22043;50.970;7.192;2023-04-03T04:53:40;4.85;;;1.80;;
35959;SDS011;22043;50.970;7.192;2023-04-03T04:58:36;5.75;;;1.52;;
35959;SDS011;22043;50.970;7.192;2023-04-03T05:01:03;5.93;;;1.80;;
35959;SDS011;22043;50.970;7.192;2023-04-03T05:03:31;5.70;;;1.60;;
35959;SDS011;22043;50.970;7.192;2023-04-03T05:06:00;2.67;;;1.55;;
35959;SDS011;22043;50.970;7.192;2023-04-03T05:08:27;6.43;;;2.00;;
35959;SDS011;22043;50.970;7.192;2023-04-03T05:10:53;4.10;;;2.03;;
35959;SDS011;22043;50.970;7.192;2023-04-03T05:13:18;9.43;;;2.95;;
35959;SDS011;22043;50.970;7.192;2023-04-03T05:15:45;3.83;;;1.40;;
35959;SDS011;22043;50.970;7.192;2023-04-03T05:18:12;5.00;;;1.75;;
35959;SDS011;22043;50.970;7.192;2023-04-03T05:20:38;5.20;;;2.10;;
35959;SDS011;22043;50.970;7.192;2023-04-03T05:23:04;4.75;;;1.65;;
35959;SDS011;22043;50.970;7.192;2023-04-03T05:25:32;4.10;;;2.75;;
35959;SDS011;22043;50.970;7.192;2023-04-03T05:27:58;6.82;;;1.40;;
35959;SDS011;22043;50.970;7.192;2023-04-03T05:30:23;3.22;;;1.50;;
35959;SDS011;22043;50.970;7.192;2023-04-03T05:32:49;5.38;;;1.88;;
35959;SDS011;22043;50.970;7.192;2023-04-03T05:35:18;4.30;;;1.60;;
35959;SDS011;22043;50.970;7.192;2023-04-03T05:37:46;3.30;;;1.80;;
35959;SDS011;22043;50.970;7.192;2023-04-03T05:40:13;3.22;;;1.27;;
35959;SDS011;22043;50.970;7.192;2023-04-03T05:42:41;9.73;;;2.30;;
35959;SDS011;22043;50.970;7.192;2023-04-03T05:45:07;4.25;;;1.70;;
35959;SDS011;22043;50.970;7.192;2023-04-03T05:47:33;7.18;;;1.75;;
35959;SDS011;22043;50.970;7.192;2023-04-03T05:49:58;5.88;;;1.75;;
35959;SDS011;22043;50.970;7.192;2023-04-03T05:52:28;5.35;;;1.63;;
35959;SDS011;22043;50.970;7.192;2023-04-03T05:54:57;3.25;;;1.45;;
35959;SDS011;22043;50.970;7.192;2023-04-03T05:57:25;4.25;;;1.30;;
35959;SDS011;22043;50.970;7.192;2023-04-03T05:59:51;4.35;;;1.58;;
35959;SDS011;22043;50.970;7.192;2023-04-03T06:02:19;3.22;;;1.48;;
35959;SDS011;22043;50.970;7.192;2023-04-03T06:04:46;5.07;;;1.63;;
35959;SDS011;22043;50.970;7.192;2023-04-03T06:07:13;4.88;;;1.17;;
35959;SDS011;22043;50.970;7.192;2023-04-03T06:09:40;6.95;;;1.45;;
35959;SDS011;22043;50.970;7.192;2023-04-03T06:12:06;5.07;;;1.48;;
35959;SDS011;22043;50.970;7.192;2023-04-03T06:14:32;3.28;;;1.60;;
35959;SDS011;22043;50.970;7.192;2023-04-03T06:17:00;4.55;;;1.70;;
35959;SDS011;22043;50.970;7.192;2023-04-03T06:19:26;3.20;;;1.20;;
35959;SDS011;22043;50.970;7.192;2023-04-03T06:21:55;4.47;;;1.20;;
35959;SDS011;22043;50.970;7.192;2023-04-03T06:24:20;5.05;;;1.40;;
35959;SDS011;22043;50.970;7.192;2023-04-03T06:26:48;4.43;;;1.75;;
35959;SDS011;22043;50.970;7.192;2023-04-03T06:29:15;4.43;;;1.55;;
35959;SDS011;22043;50.970;7.192;2023-04-03T06:31:40;5.55;;;1.17;;
35959;SDS011;22043;50.970;7.192;2023-04-03T06:34:05;3.10;;;1.10;;
35959;SDS011;22043;50.970;7.192;2023-04-03T06:36:32;5.25;;;1.30;;
35959;SDS011;22043;50.970;7.192;2023-04-03T06:38:58;3.95;;;1.42;;
35959;SDS011;22043;50.970;7.192;2023-04-03T06:41:23;5.57;;;1.40;;
35959;SDS011;22043;50.970;7.192;2023-04-03T06:43:49;5.47;;;1.92;;
35959;SDS011;22043;50.970;7.192;2023-04-03T06:46:17;4.05;;;1.40;;
35959;SDS011;22043;50.970;7.192;2023-04-03T06:48:45;5.47;;;1.55;;
35959;SDS011;22043;50.970;7.192;2023-04-03T06:51:24;6.00;;;1.35;;
35959;SDS011;22043;50.970;7.192;2023-04-03T06:53:52;4.43;;;1.70;;
35959;SDS011;22043;50.970;7.192;2023-04-03T06:56:18;4.90;;;1.30;;
35959;SDS011;22043;50.970;7.192;2023-04-03T06:58:44;3.85;;;1.55;;
35959;SDS011;22043;50.970;7.192;2023-04-03T07:01:10;6.07;;;1.73;;
35959;SDS011;22043;50.970;7.192;2023-04-03T07:03:37;4.63;;;1.70;;
35959;SDS011;22043;50.970;7.192;2023-04-03T07:06:03;4.90;;;1.33;;
35959;SDS011;22043;50.970;7.192;2023-04-03T07:08:31;4.97;;;1.40;;
35959;SDS011;22043;50.970;7.192;2023-04-03T07:10:57;5.55;;;1.42;;
35959;SDS011;22043;50.970;7.192;2023-04-03T07:13:22;5.78;;;1.50;;
35959;SDS011;22043;50.970;7.192;2023-04-03T07:15:48;4.03;;;1.40;;
35959;SDS011;22043;50.970;7.192;2023-04-03T07:18:14;5.25;;;1.58;;
35959;SDS011;22043;50.970;7.192;2023-04-03T07:20:39;3.53;;;1.20;;
35959;SDS011;22043;50.970;7.192;2023-04-03T07:23:05;6.07;;;1.65;;
35959;SDS011;22043;50.970;7.192;2023-04-03T07:25:30;3.17;;;1.27;;
35959;SDS011;22043;50.970;7.192;2023-04-03T07:27:57;5.20;;;1.30;;
35959;SDS011;22043;50.970;7.192;2023-04-03T07:30:22;4.03;;;1.30;;
35959;SDS011;22043;50.970;7.192;2023-04-03T07:32:48;7.43;;;1.90;;
35959;SDS011;22043;50.970;7.192;2023-04-03T07:35:13;5.95;;;1.92;;
35959;SDS011;22043;50.970;7.192;2023-04-03T07:37:39;4.30;;;1.40;;
35959;SDS011;22043;50.970;7.192;2023-04-03T07:40:05;4.30;;;1.42;;
35959;SDS011;22043;50.970;7.192;2023-04-03T07:42:31;4.88;;;1.50;;
35959;SDS011;22043;50.970;7.192;2023-04-03T07:44:57;6.63;;;1.10;;
35959;SDS011;22043;50.970;7.192;2023-04-03T07:47:22;4.15;;;1.20;;
35959;SDS011;22043;50.970;7.192;2023-04-03T07:49:48;4.78;;;1.27;;
35959;SDS011;22043;50.970;7.192;2023-04-03T07:52:14;10.02;;;1.95;;
35959;SDS011;22043;50.970;7.192;2023-04-03T07:54:40;5.25;;;1.63;;
35959;SDS011;22043;50.970;7.192;2023-04-03T07:57:06;2.88;;;1.02;;
35959;SDS011;22043;50.970;7.192;2023-04-03T07:59:32;4.68;;;1.33;;
35959;SDS011;22043;50.970;7.192;2023-04-03T08:01:57;4.43;;;1.45;;
35959;SDS011;22043;50.970;7.192;2023-04-03T08:04:23;7.85;;;1.02;;
35959;SDS011;22043;50.970;7.192;2023-04-03T08:06:48;4.57;;;1.40;;
35959;SDS011;22043;50.970;7.192;2023-04-03T08:09:15;6.53;;;1.70;;
35959;SDS011;22043;50.970;7.192;2023-04-03T08:11:41;6.13;;;1.58;;
35959;SDS011;22043;50.970;7.192;2023-04-03T08:14:06;5.47;;;2.13;;
35959;SDS011;22043;50.970;7.192;2023-04-03T08:16:32;6.00;;;1.10;;
35959;SDS011;22043;50.970;7.192;2023-04-03T08:18:57;2.83;;;0.82;;
35959;SDS011;22043;50.970;7.192;2023-04-03T08:21:23;4.20;;;1.10;;
35959;SDS011;22043;50.970;7.192;2023-04-03T08:23:49;3.05;;;0.90;;
35959;SDS011;22043;50.970;7.192;2023-04-03T08:26:16;4.53;;;1.58;;
35959;SDS011;22043;50.970;7.192;2023-04-03T08:28:44;6.78;;;1.05;;
35959;SDS011;22043;50.970;7.192;2023-04-03T08:31:10;3.35;;;1.00;;
35959;SDS011;22043;50.970;7.192;2023-04-03T08:33:38;2.65;;;0.80;;
35959;SDS011;22043;50.970;7.192;2023-04-03T08:36:04;3.65;;;1.23;;
35959;SDS011;22043;50.970;7.192;2023-04-03T08:38:31;5.53;;;1.10;;
35959;SDS011;22043;50.970;7.192;2023-04-03T08:41:18;4.28;;;0.77;;
35959;SDS011;22043;50.970;7.192;2023-04-03T08:46:47;2.65;;;0.70;;
35959;SDS011;22043;50.970;7.192;2023-04-03T08:52:09;3.03;;;0.98;;
35959;SDS011;22043;50.970;7.192;2023-04-03T08:54:58;4.22;;;0.80;;
35959;SDS011;22043;50.970;7.192;2023-04-03T08:57:32;2.13;;;0.77;;
35959;SDS011;22043;50.970;7.192;2023-04-03T09:00:02;2.15;;;1.00;;
35959;SDS011;22043;50.970;7.192;2023-04-03T09:05:01;4.85;;;0.88;;
35959;SDS011;22043;50.970;7.192;2023-04-03T09:07:33;3.22;;;1.52;;
35959;SDS011;22043;50.970;7.192;2023-04-03T09:10:04;3.55;;;0.98;;
35959;SDS011;22043;50.970;7.192;2023-04-03T09:12:36;5.00;;;0.80;;
35959;SDS011;22043;50.970;7.192;2023-04-03T09:15:15;3.72;;;1.00;;
35959;SDS011;22043;50.970;7.192;2023-04-03T09:22:34;4.68;;;0.95;;
35959;SDS011;22043;50.970;7.192;2023-04-03T09:27:34;4.07;;;0.90;;
35959;SDS011;22043;50.970;7.192;2023-04-03T09:29:59;2.22;;;0.95;;
35959;SDS011;22043;50.970;7.192;2023-04-03T09:32:29;3.17;;;1.00;;
35959;SDS011;22043;50.970;7.192;2023-04-03T09:34:57;3.50;;;0.90;;
35959;SDS011;22043;50.970;7.192;2023-04-03T09:37:33;3.13;;;0.93;;
35959;SDS011;22043;50.970;7.192;2023-04-03T09:40:31;1.73;;;0.75;;
35959;SDS011;22043;50.970;7.192;2023-04-03T09:43:01;2.63;;;0.68;;
35959;SDS011;22043;50.970;7.192;2023-04-03T09:45:44;2.03;;;0.82;;
35959;SDS011;22043;50.970;7.192;2023-04-03T09:55:55;2.38;;;0.80;;
35959;SDS011;22043;50.970;7.192;2023-04-03T09:58:39;1.95;;;0.73;;
35959;SDS011;22043;50.970;7.192;2023-04-03T10:01:08;3.25;;;0.60;;
35959;SDS011;22043;50.970;7.192;2023-04-03T10:03:47;3.60;;;0.80;;
35959;SDS011;22043;50.970;7.192;2023-04-03T10:06:29;1.88;;;0.60;;
35959;SDS011;22043;50.970;7.192;2023-04-03T10:09:01;2.78;;;0.77;;
35959;SDS011;22043;50.970;7.192;2023-04-03T10:11:29;2.75;;;0.75;;
35959;SDS011;22043;50.970;7.192;2023-04-03T10:13:56;4.22;;;1.13;;
35959;SDS011;22043;50.970;7.192;2023-04-03T10:16:26;3.20;;;1.25;;
35959;SDS011;22043;50.970;7.192;2023-04-03T10:21:58;3.38;;;0.93;;
35959;SDS011;22043;50.970;7.192;2023-04-03T10:24:34;2.80;;;0.82;;
35959;SDS011;22043;50.970;7.192;2023-04-03T10:27:10;3.47;;;0.70;;
35959;SDS011;22043;50.970;7.192;2023-04-03T10:30:01;1.00;;;0.65;;
35959;SDS011;22043;50.970;7.192;2023-04-03T10:35:28;2.45;;;0.70;;
35959;SDS011;22043;50.970;7.192;2023-04-03T10:46:38;1.77;;;0.73;;
35959;SDS011;22043;50.970;7.192;2023-04-03T10:51:57;0.82;;;0.50;;
35959;SDS011;22043;50.970;7.192;2023-04-03T10:54:36;1.70;;;0.50;;
35959;SDS011;22043;50.970;7.192;2023-04-03T10:57:05;2.28;;;0.90;;
35959;SDS011;22043;50.970;7.192;2023-04-03T10:59:47;1.80;;;0.60;;
35959;SDS011;22043;50.970;7.192;2023-04-03T11:05:53;1.35;;;0.57;;
35959;SDS011;22043;50.970;7.192;2023-04-03T11:08:08;2.58;;;0.60;;
35959;SDS011;22043;50.970;7.192;2023-04-03T11:10:44;2.15;;;1.02;;
35959;SDS011;22043;50.970;7.192;2023-04-03T11:13:13;1.63;;;0.57;;
35959;SDS011;22043;50.970;7.192;2023-04-03T11:15:43;2.03;;;0.50;;
35959;SDS011;22043;50.970;7.192;2023-04-03T11:18:35;1.25;;;0.50;;
35959;SDS011;22043;50.970;7.192;2023-04-03T11:24:25;1.80;;;0.68;;
35959;SDS011;22043;50.970;7.192;2023-04-03T11:26:52;13.57;;;5.18;;
35959;SDS011;22043;50.970;7.192;2023-04-03T11:32:04;9.57;;;3.78;;
35959;SDS011;22043;50.970;7.192;2023-04-03T11:34:34;2.53;;;0.70;;
35959;SDS011;22043;50.970;7.192;2023-04-03T11:37:51;5.43;;;2.10;;
35959;SDS011;22043;50.970;7.192;2023-04-03T11:40:22;2.40;;;0.60;;
35959;SDS011;22043;50.970;7.192;2023-04-03T11:42:51;1.20;;;0.68;;
35959;SDS011;22043;50.970;7.192;2023-04-03T11:47:57;2.75;;;0.70;;
35959;SDS011;22043;50.970;7.192;2023-04-03T11:53:02;2.55;;;0.70;;
35959;SDS011;22043;50.970;7.192;2023-04-03T11:58:02;1.00;;;0.60;;
35959;SDS011;22043;50.970;7.192;2023-04-03T12:00:49;2.55;;;0.75;;
35959;SDS011;22043;50.970;7.192;2023-04-03T12:13:37;1.88;;;0.50;;
35959;SDS011;22043;50.970;7.192;2023-04-03T12:16:05;2.05;;;0.60;;
35959;SDS011;22043;50.970;7.192;2023-04-03T12:18:41;2.70;;;0.70;;
35959;SDS011;22043;50.970;7.192;2023-04-03T12:21:17;1.45;;;0.65;;
35959;SDS011;22043;50.970;7.192;2023-04-03T12:26:44;2.33;;;0.63;;
35959;SDS011;22043;50.970;7.192;2023-04-03T12:31:40;2.42;;;0.50;;
35959;SDS011;22043;50.970;7.192;2023-04-03T12:34:21;1.13;;;0.40;;
35959;SDS011;22043;50.970;7.192;2023-04-03T12:37:03;3.35;;;0.80;;
35959;SDS011;22043;50.970;7.192;2023-04-03T12:39:45;2.30;;;0.60;;
35959;SDS011;22043;50.970;7.192;2023-04-03T12:45:00;2.47;;;0.73;;
35959;SDS011;22043;50.970;7.192;2023-04-03T12:47:35;2.55;;;0.80;;
35959;SDS011;22043;50.970;7.192;2023-04-03T12:50:04;2.28;;;0.70;;
35959;SDS011;22043;50.970;7.192;2023-04-03T12:52:51;2.60;;;0.90;;
35959;SDS011;22043;50.970;7.192;2023-04-03T12:55:21;2.28;;;0.60;;
35959;SDS011;22043;50.970;7.192;2023-04-03T12:57:47;1.77;;;0.68;;
35959;SDS011;22043;50.970;7.192;2023-04-03T13:02:58;2.78;;;0.70;;
35959;SDS011;22043;50.970;7.192;2023-04-03T13:05:26;1.85;;;0.57;;
35959;SDS011;22043;50.970;7.192;2023-04-03T13:07:57;2.15;;;0.80;;
35959;SDS011;22043;50.970;7.192;2023-04-03T13:10:26;2.58;;;0.70;;
35959;SDS011;22043;50.970;7.192;2023-04-03T13:12:53;1.75;;;0.80;;
35959;SDS011;22043;50.970;7.192;2023-04-03T13:15:22;2.83;;;0.85;;
35959;SDS011;22043;50.970;7.192;2023-04-03T13:17:48;1.20;;;0.70;;
35959;SDS011;22043;50.970;7.192;2023-04-03T13:20:22;3.92;;;0.68;;
35959;SDS011;22043;50.970;7.192;2023-04-03T13:25:27;5.25;;;1.80;;
35959;SDS011;22043;50.970;7.192;2023-04-03T13:27:56;2.25;;;0.60;;
35959;SDS011;22043;50.970;7.192;2023-04-03T13:32:54;1.98;;;0.85;;
35959;SDS011;22043;50.970;7.192;2023-04-03T13:35:32;3.50;;;1.10;;
35959;SDS011;22043;50.970;7.192;2023-04-03T13:40:50;2.13;;;0.80;;
35959;SDS011;22043;50.970;7.192;2023-04-03T13:43:21;1.25;;;0.57;;
35959;SDS011;22043;50.970;7.192;2023-04-03T13:45:56;2.58;;;0.75;;
35959;SDS011;22043;50.970;7.192;2023-04-03T13:48:24;5.05;;;1.70;;
35959;SDS011;22043;50.970;7.192;2023-04-03T13:51:03;5.00;;;1.63;;
35959;SDS011;22043;50.970;7.192;2023-04-03T13:53:33;4.20;;;1.30;;
35959;SDS011;22043;50.970;7.192;2023-04-03T13:56:08;3.08;;;0.60;;
35959;SDS011;22043;50.970;7.192;2023-04-03T13:58:51;4.13;;;1.30;;
35959;SDS011;22043;50.970;7.192;2023-04-03T14:01:23;3.22;;;0.80;;
35959;SDS011;22043;50.970;7.192;2023-04-03T14:03:54;2.00;;;0.82;;
35959;SDS011;22043;50.970;7.192;2023-04-03T14:06:22;3.13;;;1.13;;
35959;SDS011;22043;50.970;7.192;2023-04-03T14:08:49;1.58;;;0.73;;
35959;SDS011;22043;50.970;7.192;2023-04-03T14:11:20;4.38;;;1.13;;
35959;SDS011;22043;50.970;7.192;2023-04-03T14:13:48;2.03;;;0.90;;
35959;SDS011;22043;50.970;7.192;2023-04-03T14:16:16;5.60;;;1.40;;
35959;SDS011;22043;50.970;7.192;2023-04-03T14:18:46;2.95;;;1.02;;
35959;SDS011;22043;50.970;7.192;2023-04-03T14:21:13;2.35;;;0.57;;
35959;SDS011;22043;50.970;7.192;2023-04-03T14:23:39;2.97;;;1.00;;
35959;SDS011;22043;50.970;7.192;2023-04-03T14:26:10;3.92;;;1.83;;
35959;SDS011;22043;50.970;7.192;2023-04-03T14:28:38;3.03;;;0.80;;
35959;SDS011;22043;50.970;7.192;2023-04-03T14:31:05;2.85;;;1.27;;
35959;SDS011;22043;50.970;7.192;2023-04-03T14:33:32;3.65;;;0.98;;
35959;SDS011;22043;50.970;7.192;2023-04-03T14:36:00;2.05;;;0.70;;
35959;SDS011;22043;50.970;7.192;2023-04-03T14:38:28;3.90;;;1.42;;
35959;SDS011;22043;50.970;7.192;2023-04-03T14:40:56;2.10;;;0.73;;
35959;SDS011;22043;50.970;7.192;2023-04-03T14:43:22;4.60;;;0.83;;
35959;SDS011;22043;50.970;7.192;2023-04-03T14:45:49;3.28;;;0.80;;
35959;SDS011;22043;50.970;7.192;2023-04-03T14:48:17;4.53;;;1.92;;
35959;SDS011;22043;50.970;7.192;2023-04-03T14:50:45;3.78;;;1.20;;
35959;SDS011;22043;50.970;7.192;2023-04-03T14:53:11;3.25;;;0.95;;
35959;SDS011;22043;50.970;7.192;2023-04-03T14:55:36;1.67;;;0.80;;
35959;SDS011;22043;50.970;7.192;2023-04-03T14:58:02;3.53;;;0.80;;
35959;SDS011;22043;50.970;7.192;2023-04-03T15:00:27;3.33;;;1.33;;
35959;SDS011;22043;50.970;7.192;2023-04-03T15:02:53;3.75;;;0.90;;
35959;SDS011;22043;50.970;7.192;2023-04-03T15:05:18;5.35;;;0.80;;
35959;SDS011;22043;50.970;7.192;2023-04-03T15:07:46;3.40;;;0.80;;
35959;SDS011;22043;50.970;7.192;2023-04-03T15:10:18;2.50;;;1.00;;
35959;SDS011;22043;50.970;7.192;2023-04-03T15:12:50;2.70;;;0.93;;
35959;SDS011;22043;50.970;7.192;2023-04-03T15:15:17;2.38;;;0.73;;
35959;SDS011;22043;50.970;7.192;2023-04-03T15:20:15;4.50;;;0.70;;
35959;SDS011;22043;50.970;7.192;2023-04-03T15:22:45;2.58;;;0.88;;
35959;SDS011;22043;50.970;7.192;2023-04-03T15:25:10;5.28;;;0.90;;
35959;SDS011;22043;50.970;7.192;2023-04-03T15:27:36;2.65;;;0.85;;
35959;SDS011;22043;50.970;7.192;2023-04-03T15:30:03;2.78;;;0.75;;
35959;SDS011;22043;50.970;7.192;2023-04-03T15:32:30;2.17;;;1.00;;
35959;SDS011;22043;50.970;7.192;2023-04-03T15:34:56;2.10;;;1.00;;
35959;SDS011;22043;50.970;7.192;2023-04-03T15:37:21;2.75;;;0.73;;
35959;SDS011;22043;50.970;7.192;2023-04-03T15:39:47;2.90;;;1.00;;
35959;SDS011;22043;50.970;7.192;2023-04-03T15:42:12;2.63;;;0.88;;
35959;SDS011;22043;50.970;7.192;2023-04-03T15:44:38;3.42;;;1.10;;
35959;SDS011;22043;50.970;7.192;2023-04-03T15:47:03;4.38;;;1.25;;
35959;SDS011;22043;50.970;7.192;2023-04-03T15:49:30;3.83;;;1.17;;
35959;SDS011;22043;50.970;7.192;2023-04-03T15:51:57;3.70;;;1.17;;
35959;SDS011;22043;50.970;7.192;2023-04-03T15:54:23;2.38;;;1.13;;
35959;SDS011;22043;50.970;7.192;2023-04-03T15:56:49;2.58;;;0.77;;
35959;SDS011;22043;50.970;7.192;2023-04-03T15:59:15;13.98;;;1.17;;
35959;SDS011;22043;50.970;7.192;2023-04-03T16:01:40;2.17;;;0.93;;
35959;SDS011;22043;50.970;7.192;2023-04-03T16:04:07;2.92;;;0.80;;
35959;SDS011;22043;50.970;7.192;2023-04-03T16:06:34;2.15;;;0.98;;
35959;SDS011;22043;50.970;7.192;2023-04-03T16:09:00;2.33;;;0.85;;
35959;SDS011;22043;50.970;7.192;2023-04-03T16:11:26;5.63;;;1.15;;
35959;SDS011;22043;50.970;7.192;2023-04-03T16:13:51;3.60;;;1.15;;
35959;SDS011;22043;50.970;7.192;2023-04-03T16:16:18;1.80;;;0.70;;
35959;SDS011;22043;50.970;7.192;2023-04-03T16:18:43;2.45;;;0.80;;
35959;SDS011;22043;50.970;7.192;2023-04-03T16:23:38;1.30;;;0.63;;
35959;SDS011;22043;50.970;7.192;2023-04-03T16:26:05;1.85;;;1.10;;
35959;SDS011;22043;50.970;7.192;2023-04-03T16:28:30;2.20;;;0.70;;
35959;SDS011;22043;50.970;7.192;2023-04-03T16:30:56;2.55;;;0.75;;
35959;SDS011;22043;50.970;7.192;2023-04-03T16:33:21;4.18;;;1.30;;
35959;SDS011;22043;50.970;7.192;2023-04-03T16:35:47;2.28;;;0.70;;
35959;SDS011;22043;50.970;7.192;2023-04-03T16:38:14;2.55;;;0.98;;
35959;SDS011;22043;50.970;7.192;2023-04-03T16:40:40;2.03;;;0.60;;